createdAt,value
2022-08-05T00:09:36.916Z,18.27
2022-08-05T00:19:45.626Z,16.05
2022-08-05T00:30:05.531Z,17.60
2022-08-05T00:40:17.850Z,16.55
2022-08-05T00:50:31.731Z,17.30
2022-08-05T01:00:36.345Z,16.38
2022-08-05T01:10:52.342Z,16.02
2022-08-05T01:21:07.785Z,13.88
2022-08-05T01:31:24.621Z,12.10
2022-08-05T01:41:33.612Z,12.73
2022-08-05T02:01:44.345Z,13.23
2022-08-05T02:12:07.019Z,14.10
2022-08-05T02:22:25.831Z,14.48
2022-08-05T02:32:34.559Z,15.60
2022-08-05T02:42:39.596Z,14.10
2022-08-05T02:52:46.882Z,15.35
2022-08-05T03:02:50.994Z,16.25
2022-08-05T03:22:59.331Z,16.55
2022-08-05T03:33:07.502Z,15.45
2022-08-05T03:43:58.617Z,15.75
2022-08-05T03:56:03.935Z,14.00
2022-08-05T04:04:10.218Z,14.80
2022-08-05T04:14:17.913Z,14.27
2022-08-05T04:24:22.524Z,14.65
2022-08-05T04:34:32.914Z,15.00
2022-08-05T04:44:38.179Z,13.95
2022-08-05T04:54:42.855Z,14.35
2022-08-05T05:04:49.711Z,21.02
2022-08-05T05:14:55.009Z,13.52
2022-08-05T05:25:00.223Z,12.68
2022-08-05T05:35:06.745Z,14.75
2022-08-05T05:45:15.222Z,14.80
2022-08-05T05:55:20.136Z,11.05
2022-08-05T06:05:35.927Z,10.23
2022-08-05T06:16:28.432Z,11.55
2022-08-05T06:26:20.967Z,12.75
2022-08-05T06:36:26.209Z,13.48
2022-08-05T06:46:30.039Z,9.93
2022-08-05T06:56:35.323Z,6.75
2022-08-05T07:06:38.602Z,7.80
2022-08-05T07:18:01.975Z,8.60
2022-08-05T07:27:15.410Z,8.45
2022-08-05T07:37:20.091Z,7.55
2022-08-05T07:47:25.740Z,8.05
2022-08-05T07:57:51.372Z,9.18
2022-08-05T08:08:00.503Z,9.20
2022-08-05T08:18:09.719Z,8.73
2022-08-05T08:28:18.632Z,7.97
2022-08-05T08:38:39.926Z,7.90
2022-08-05T08:49:07.487Z,7.25
2022-08-05T08:59:19.211Z,7.35
2022-08-05T09:09:23.161Z,7.88
2022-08-05T09:19:36.384Z,8.13
2022-08-05T09:29:51.649Z,8.32
2022-08-05T09:39:56.345Z,7.57
2022-08-05T09:50:02.328Z,8.57
2022-08-05T10:00:12.094Z,8.10
2022-08-05T10:10:18.476Z,7.88
